createdAt,value
2018-03-06T00:00:44.769Z,17.33
2018-03-06T00:03:12.298Z,16.70
2018-03-06T00:05:40.573Z,16.97
2018-03-06T00:08:08.873Z,19.80
2018-03-06T00:10:37.162Z,18.40
2018-03-06T00:13:05.441Z,17.03
2018-03-06T00:15:33.737Z,20.43
2018-03-06T00:18:02.020Z,20.90
2018-03-06T00:20:30.317Z,23.23
2018-03-06T00:22:58.599Z,22.00
2018-03-06T00:25:26.909Z,20.53
2018-03-06T00:27:54.421Z,22.30
2018-03-06T00:30:21.958Z,22.07
2018-03-06T00:32:49.469Z,21.83
2018-03-06T00:35:16.999Z,22.93
2018-03-06T00:37:44.514Z,21.27
2018-03-06T00:40:12.054Z,20.27
2018-03-06T00:42:39.558Z,21.50
2018-03-06T00:45:07.088Z,21.40
2018-03-06T00:47:34.604Z,21.87
2018-03-06T00:50:02.126Z,22.47
2018-03-06T00:52:29.652Z,23.37
2018-03-06T00:54:57.173Z,25.50
2018-03-06T00:57:24.686Z,27.93
2018-03-06T00:59:52.200Z,27.53
2018-03-06T01:02:19.718Z,26.10
2018-03-06T01:04:47.254Z,27.73
2018-03-06T01:07:14.765Z,25.47
2018-03-06T01:09:42.293Z,23.83
2018-03-06T01:12:09.793Z,22.40
2018-03-06T01:14:37.312Z,25.33
2018-03-06T01:17:05.585Z,24.37
2018-03-06T01:19:33.882Z,22.67
2018-03-06T01:22:02.159Z,25.00
2018-03-06T01:24:29.692Z,24.80
2018-03-06T01:26:57.197Z,23.90
2018-03-06T01:29:24.738Z,24.67
2018-03-06T01:31:52.236Z,25.40
2018-03-06T01:34:19.768Z,26.13
2018-03-06T01:36:47.268Z,25.00
2018-03-06T01:39:14.787Z,26.40
2018-03-06T01:41:42.292Z,29.67
2018-03-06T01:44:09.825Z,27.77
2018-03-06T01:46:37.333Z,27.43
2018-03-06T01:49:04.854Z,29.80
2018-03-06T01:51:44.989Z,31.77
2018-03-06T01:54:12.512Z,30.80
2018-03-06T01:56:40.021Z,31.90
2018-03-06T01:59:07.556Z,31.50
2018-03-06T02:01:35.052Z,31.17
2018-03-06T02:04:02.573Z,30.67
2018-03-06T02:06:30.847Z,31.80
2018-03-06T02:08:59.151Z,30.80
2018-03-06T02:11:27.412Z,32.93
2018-03-06T02:13:54.940Z,33.47
2018-03-06T02:16:22.456Z,30.90
2018-03-06T02:18:49.979Z,32.43
2018-03-06T02:21:17.494Z,33.33
2018-03-06T02:23:44.991Z,32.80
2018-03-06T02:26:13.275Z,34.27
2018-03-06T02:28:41.533Z,32.93
2018-03-06T02:31:09.036Z,33.30
2018-03-06T02:33:37.315Z,35.40
2018-03-06T02:36:05.575Z,33.40
2018-03-06T02:38:33.092Z,35.10
2018-03-06T02:41:01.355Z,35.00
2018-03-06T02:43:28.874Z,36.20
2018-03-06T02:46:08.389Z,33.83
2018-03-06T02:48:36.675Z,36.17
2018-03-06T02:51:04.942Z,36.27
2018-03-06T02:53:32.463Z,35.83
2018-03-06T02:55:59.954Z,35.97
2018-03-06T02:58:27.471Z,36.07
2018-03-06T03:00:54.967Z,37.80
2018-03-06T03:03:22.465Z,35.97
2018-03-06T03:05:49.978Z,33.13
2018-03-06T03:08:17.458Z,36.30
2018-03-06T03:10:57.167Z,36.73
2018-03-06T03:13:24.672Z,36.87
2018-03-06T03:15:52.188Z,35.27
2018-03-06T03:18:19.676Z,37.23
2018-03-06T03:20:47.191Z,38.13
2018-03-06T03:23:14.688Z,35.37
2018-03-06T03:25:42.207Z,37.03
2018-03-06T03:28:11.619Z,35.00
2018-03-06T03:30:39.149Z,35.63
2018-03-06T03:33:06.641Z,36.90
2018-03-06T03:35:34.128Z,37.97
2018-03-06T03:38:01.638Z,38.90
2018-03-06T03:40:29.895Z,38.20
2018-03-06T03:42:57.428Z,40.17
2018-03-06T03:45:24.927Z,42.20
2018-03-06T03:47:52.447Z,38.23
2018-03-06T03:50:20.707Z,40.27
2018-03-06T03:52:48.223Z,37.17
2018-03-06T03:55:15.723Z,39.20
2018-03-06T03:57:43.248Z,39.70
2018-03-06T04:00:11.507Z,40.40
2018-03-06T04:02:39.022Z,41.13
2018-03-06T04:05:06.507Z,39.67
2018-03-06T04:07:34.024Z,40.17
2018-03-06T04:10:01.515Z,42.27
2018-03-06T04:12:29.796Z,41.90
2018-03-06T04:14:58.051Z,42.40
2018-03-06T04:17:25.571Z,42.70
2018-03-06T04:19:53.068Z,40.53
2018-03-06T04:22:20.559Z,43.60
2018-03-06T04:24:48.075Z,41.93
2018-03-06T04:27:16.332Z,43.00
2018-03-06T04:29:43.847Z,42.10
2018-03-06T04:32:11.331Z,43.70
2018-03-06T04:34:38.850Z,43.40
2018-03-06T04:37:06.347Z,43.03
2018-03-06T04:39:33.874Z,43.23
2018-03-06T04:42:01.371Z,41.10
2018-03-06T04:44:28.890Z,43.27
2018-03-06T04:46:56.382Z,42.10
2018-03-06T04:49:23.895Z,41.90
2018-03-06T04:51:51.398Z,43.27
2018-03-06T04:54:18.919Z,41.83
2018-03-06T04:56:47.184Z,43.00
2018-03-06T04:59:14.699Z,43.10
2018-03-06T05:01:42.200Z,42.90
2018-03-06T05:04:09.696Z,43.70
2018-03-06T05:06:37.215Z,41.60
2018-03-06T05:09:04.735Z,44.13
2018-03-06T05:11:32.255Z,43.10
2018-03-06T05:13:59.756Z,43.83
2018-03-06T05:16:27.285Z,40.00
2018-03-06T05:18:55.588Z,41.30
2018-03-06T05:21:23.059Z,43.00
2018-03-06T05:23:50.570Z,40.00
2018-03-06T05:26:18.087Z,42.43
2018-03-06T05:28:46.352Z,44.83
2018-03-06T05:31:13.868Z,42.57
2018-03-06T05:33:41.355Z,43.10
2018-03-06T05:36:08.875Z,43.10
2018-03-06T05:38:37.139Z,39.13
2018-03-06T05:41:04.672Z,41.80
2018-03-06T05:43:32.171Z,41.57
2018-03-06T05:45:59.663Z,40.10
2018-03-06T05:48:27.184Z,40.90
2018-03-06T05:50:55.451Z,41.60
2018-03-06T05:53:22.979Z,40.37
2018-03-06T05:58:45.854Z,40.37
2018-03-06T06:01:13.379Z,39.67
2018-03-06T06:03:41.635Z,40.07
2018-03-06T06:06:09.122Z,39.50
2018-03-06T06:08:36.643Z,52.67
2018-03-06T06:11:04.139Z,56.67
2018-03-06T06:13:31.653Z,43.13
2018-03-06T06:15:59.903Z,43.30
2018-03-06T06:18:27.403Z,40.37
2018-03-06T06:20:55.654Z,40.67
2018-03-06T06:23:23.156Z,40.37
2018-03-06T06:25:50.636Z,42.60
2018-03-06T06:28:18.139Z,46.10
2018-03-06T06:30:45.619Z,42.30
2018-03-06T06:33:13.115Z,38.27
2018-03-06T06:35:40.595Z,39.40
2018-03-06T06:38:08.102Z,42.63
2018-03-06T06:40:35.592Z,40.13
2018-03-06T06:43:03.094Z,42.47
2018-03-06T06:45:30.576Z,42.50
2018-03-06T06:47:58.079Z,40.03
2018-03-06T06:50:26.324Z,43.20
2018-03-06T06:52:53.835Z,42.37
2018-03-06T06:55:21.319Z,39.00
2018-03-06T06:57:48.804Z,40.50
2018-03-06T07:00:16.297Z,40.10
2018-03-06T07:02:43.770Z,43.20
2018-03-06T07:05:11.271Z,44.77
2018-03-06T07:07:38.743Z,41.40
2018-03-06T07:10:06.247Z,46.07
2018-03-06T07:12:33.732Z,43.27
2018-03-06T07:15:01.227Z,44.67
2018-03-06T07:17:28.712Z,45.50
2018-03-06T07:19:56.227Z,48.93
2018-03-06T07:22:23.718Z,49.17
2018-03-06T07:24:51.228Z,82.90
2018-03-06T07:27:18.706Z,46.77
2018-03-06T07:29:46.975Z,45.00
2018-03-06T07:32:14.460Z,48.27
2018-03-06T07:34:41.996Z,48.23
2018-03-06T07:37:09.479Z,45.63
2018-03-06T07:39:36.959Z,47.70
2018-03-06T07:42:04.463Z,46.50
2018-03-06T07:44:32.715Z,44.80
2018-03-06T07:47:00.232Z,45.17
2018-03-06T07:49:27.710Z,46.80
2018-03-06T07:51:55.979Z,47.13
2018-03-06T07:54:24.223Z,43.87
2018-03-06T07:56:51.756Z,44.40
2018-03-06T07:59:19.243Z,77.33
2018-03-06T08:01:46.751Z,59.33
2018-03-06T08:04:14.240Z,46.53
2018-03-06T08:06:42.515Z,47.30
2018-03-06T08:09:10.003Z,47.40
2018-03-06T08:11:38.291Z,45.03
2018-03-06T08:14:06.537Z,45.57
2018-03-06T08:16:34.027Z,47.80
2018-03-06T08:19:01.531Z,46.50
2018-03-06T08:21:29.016Z,48.10
2018-03-06T08:23:56.567Z,45.57
2018-03-06T08:26:24.038Z,46.97
2018-03-06T08:28:52.299Z,45.53
2018-03-06T08:31:20.635Z,45.50
2018-03-06T08:33:48.575Z,47.53
2018-03-06T08:36:16.823Z,49.33
2018-03-06T08:38:44.319Z,46.17
2018-03-06T08:41:11.808Z,44.93
2018-03-06T08:43:40.075Z,46.80
2018-03-06T08:46:07.552Z,45.53
2018-03-06T08:48:35.056Z,44.10
2018-03-06T08:51:02.535Z,46.53
2018-03-06T08:53:30.036Z,44.93
2018-03-06T08:55:57.521Z,45.53
2018-03-06T08:58:25.008Z,46.50
2018-03-06T09:00:52.511Z,46.80
2018-03-06T09:03:19.992Z,47.37
2018-03-06T09:05:47.497Z,44.60
2018-03-06T09:08:14.978Z,46.40
2018-03-06T09:10:42.487Z,46.83
2018-03-06T09:13:09.967Z,47.30
2018-03-06T09:15:37.472Z,45.07
2018-03-06T09:18:04.951Z,48.47
2018-03-06T09:20:32.450Z,45.97
2018-03-06T09:23:00.692Z,45.10
2018-03-06T09:25:28.200Z,46.50
2018-03-06T09:27:56.456Z,46.90
2018-03-06T09:30:23.963Z,54.57
2018-03-06T09:32:52.215Z,49.70
2018-03-06T09:35:19.711Z,48.10
2018-03-06T09:37:47.191Z,44.70
2018-03-06T09:40:15.461Z,42.60
2018-03-06T09:42:42.942Z,45.47
2018-03-06T09:45:10.448Z,44.17
2018-03-06T09:47:37.927Z,41.40
2018-03-06T09:50:05.403Z,46.67
2018-03-06T09:52:32.907Z,42.90
2018-03-06T09:55:00.392Z,45.03
2018-03-06T09:57:27.894Z,43.60
2018-03-06T09:59:55.390Z,42.23
2018-03-06T10:02:22.884Z,42.37
2018-03-06T10:04:50.368Z,41.63
2018-03-06T10:07:17.875Z,43.40
2018-03-06T10:09:45.364Z,45.60
2018-03-06T10:12:12.872Z,43.80
2018-03-06T10:14:40.357Z,44.37
2018-03-06T10:17:08.628Z,43.13
2018-03-06T10:19:36.111Z,42.80
2018-03-06T10:22:03.615Z,42.90
2018-03-06T10:24:31.095Z,46.67
2018-03-06T10:26:58.584Z,44.63
2018-03-06T10:29:26.116Z,46.13
2018-03-06T10:31:54.361Z,43.73
2018-03-06T10:34:21.868Z,44.90
2018-03-06T10:36:49.365Z,43.30
2018-03-06T10:39:16.872Z,42.33
2018-03-06T10:41:44.365Z,43.37
2018-03-06T10:44:12.643Z,41.83
2018-03-06T10:46:40.128Z,41.57
2018-03-06T10:49:08.412Z,42.47
2018-03-06T10:51:36.657Z,45.70
2018-03-06T10:54:04.144Z,42.10
2018-03-06T10:56:31.656Z,45.37
2018-03-06T10:58:59.904Z,42.93
2018-03-06T11:01:36.056Z,44.97
2018-03-06T11:04:03.547Z,39.97
2018-03-06T11:06:31.050Z,44.60
2018-03-06T11:08:58.548Z,42.73
2018-03-06T11:11:26.052Z,43.77
2018-03-06T11:13:53.539Z,43.37
2018-03-06T11:16:21.043Z,43.23
2018-03-06T11:18:48.526Z,40.27
2018-03-06T11:21:16.031Z,44.20
2018-03-06T11:23:43.515Z,44.30
2018-03-06T11:26:11.015Z,42.90
2018-03-06T11:28:39.283Z,43.90
2018-03-06T11:31:06.784Z,43.47
2018-03-06T11:33:34.268Z,42.50
2018-03-06T11:36:01.776Z,44.50
2018-03-06T11:38:29.264Z,43.73
2018-03-06T11:40:56.767Z,42.90
2018-03-06T11:43:24.255Z,42.50
2018-03-06T11:45:51.738Z,44.17
2018-03-06T11:48:19.248Z,48.10
2018-03-06T11:50:46.735Z,43.13
2018-03-06T11:53:15.012Z,43.40
2018-03-06T11:55:43.273Z,42.27
2018-03-06T11:58:10.780Z,44.03
2018-03-06T12:00:39.027Z,46.13
2018-03-06T12:03:06.539Z,43.07
2018-03-06T12:05:34.787Z,42.53
2018-03-06T12:08:02.294Z,43.53
2018-03-06T12:10:30.542Z,44.10
2018-03-06T12:12:58.055Z,44.13
2018-03-06T12:15:26.313Z,42.80
2018-03-06T12:17:53.794Z,44.30
2018-03-06T12:20:21.303Z,45.37
2018-03-06T12:22:48.792Z,45.40
2018-03-06T12:25:16.296Z,42.87
2018-03-06T12:27:43.780Z,43.03
2018-03-06T12:30:12.053Z,45.77
2018-03-06T12:32:39.536Z,42.10
2018-03-06T12:35:07.039Z,43.50
2018-03-06T12:37:34.525Z,45.77
2018-03-06T12:40:02.034Z,43.37
2018-03-06T12:42:29.707Z,43.30
2018-03-06T12:44:57.223Z,56.40
2018-03-06T12:47:24.711Z,46.10
2018-03-06T12:49:52.200Z,45.83
2018-03-06T12:52:19.708Z,42.10
2018-03-06T12:54:48.037Z,46.73
2018-03-06T12:57:15.481Z,47.43
2018-03-06T12:59:42.970Z,43.17
2018-03-06T13:02:10.476Z,43.43
2018-03-06T13:04:37.968Z,43.03
2018-03-06T13:07:05.480Z,44.40
2018-03-06T13:09:32.970Z,41.30
2018-03-06T13:12:00.473Z,44.60
2018-03-06T13:14:27.955Z,44.97
2018-03-06T13:16:56.223Z,44.43
2018-03-06T13:19:23.704Z,42.70
2018-03-06T13:21:51.214Z,44.10
2018-03-06T13:24:18.699Z,45.67
2018-03-06T13:26:46.184Z,46.97
2018-03-06T13:29:13.691Z,44.20
2018-03-06T13:31:41.180Z,42.47
2018-03-06T13:34:09.447Z,42.93
2018-03-06T13:36:37.699Z,43.40
2018-03-06T13:39:05.204Z,43.67
2018-03-06T13:41:32.695Z,42.53
2018-03-06T13:44:00.963Z,43.60
2018-03-06T13:46:28.454Z,42.73
2018-03-06T13:48:55.967Z,43.10
2018-03-06T13:51:23.453Z,41.80
2018-03-06T13:53:50.955Z,39.30
2018-03-06T13:56:19.210Z,40.53
2018-03-06T13:58:46.711Z,41.77
2018-03-06T14:01:14.959Z,43.40
2018-03-06T14:03:42.474Z,40.67
2018-03-06T14:06:10.719Z,41.27
2018-03-06T14:08:38.200Z,39.60
2018-03-06T14:11:05.711Z,41.13
2018-03-06T14:13:33.194Z,42.37
2018-03-06T14:16:00.699Z,42.77
2018-03-06T14:18:28.193Z,42.80
2018-03-06T14:20:55.695Z,38.90
2018-03-06T14:23:23.181Z,40.93
2018-03-06T14:25:50.688Z,38.87
2018-03-06T14:28:18.171Z,39.97
2018-03-06T14:30:45.684Z,40.50
2018-03-06T14:33:13.172Z,39.83
2018-03-06T14:35:40.682Z,39.90
2018-03-06T14:38:08.166Z,40.30
2018-03-06T14:40:36.448Z,38.07
2018-03-06T14:43:03.931Z,41.97
2018-03-06T14:45:32.184Z,40.20
2018-03-06T14:47:59.691Z,41.27
2018-03-06T14:50:27.946Z,42.10
2018-03-06T14:52:55.451Z,44.20
2018-03-06T14:55:23.706Z,40.27
2018-03-06T14:57:51.211Z,42.10
2018-03-06T15:00:19.458Z,44.27
2018-03-06T15:02:46.963Z,41.00
2018-03-06T15:05:15.208Z,39.67
2018-03-06T15:07:42.706Z,41.90
2018-03-06T15:10:10.188Z,41.93
2018-03-06T15:12:38.459Z,42.73
2018-03-06T15:15:05.952Z,41.07
2018-03-06T15:17:34.218Z,38.30
2018-03-06T15:20:01.708Z,39.80
2018-03-06T15:22:29.197Z,37.97
2018-03-06T15:24:56.713Z,40.60
2018-03-06T15:27:24.206Z,37.63
2018-03-06T15:29:51.715Z,39.83
2018-03-06T15:32:19.192Z,38.77
2018-03-06T15:34:46.694Z,38.60
2018-03-06T15:37:14.184Z,37.50
2018-03-06T15:39:41.692Z,39.17
2018-03-06T15:42:09.180Z,39.37
2018-03-06T15:44:36.771Z,38.73
2018-03-06T15:47:04.524Z,39.60
2018-03-06T15:52:32.927Z,40.20
2018-03-06T15:55:07.951Z,40.73
2018-03-06T15:57:40.044Z,41.07
2018-03-06T16:00:08.295Z,41.00
2018-03-06T16:02:35.944Z,41.70
2018-03-06T16:05:03.437Z,40.27
2018-03-06T16:07:30.950Z,41.10
2018-03-06T16:09:59.206Z,40.60
2018-03-06T16:12:26.736Z,40.40
2018-03-06T16:14:54.228Z,38.13
2018-03-06T16:17:21.739Z,38.57
2018-03-06T16:19:50.005Z,39.03
2018-03-06T16:22:17.548Z,37.77
2018-03-06T16:24:45.039Z,38.57
2018-03-06T16:27:12.601Z,37.50
2018-03-06T16:29:40.103Z,41.93
2018-03-06T16:32:08.389Z,42.80
2018-03-06T16:34:35.915Z,40.33
2018-03-06T16:37:03.385Z,38.63
2018-03-06T16:39:30.890Z,42.17
2018-03-06T16:41:58.388Z,42.00
2018-03-06T16:44:26.676Z,40.20
2018-03-06T16:46:55.273Z,40.17
2018-03-06T16:49:23.561Z,43.57
2018-03-06T16:51:51.812Z,41.50
2018-03-06T16:54:19.313Z,41.87
2018-03-06T16:56:47.572Z,41.13
2018-03-06T16:59:15.079Z,41.83
2018-03-06T17:01:43.327Z,42.17
2018-03-06T17:04:10.832Z,44.20
2018-03-06T17:06:39.087Z,40.80
2018-03-06T17:09:06.590Z,40.80
2018-03-06T17:11:34.846Z,40.27
2018-03-06T17:14:02.352Z,39.70
2018-03-06T17:16:30.595Z,43.10
2018-03-06T17:18:58.080Z,43.20
2018-03-06T17:21:25.609Z,40.93
2018-03-06T17:23:53.103Z,42.63
2018-03-06T17:26:20.612Z,40.53
2018-03-06T17:28:48.114Z,41.10
2018-03-06T17:31:15.624Z,41.17
2018-03-06T17:33:43.123Z,41.03
2018-03-06T17:36:11.397Z,42.50
2018-03-06T17:38:38.910Z,43.40
2018-03-06T17:41:06.421Z,46.50
2018-03-06T17:43:33.971Z,46.00
2018-03-06T17:46:01.445Z,45.40
2018-03-06T17:48:28.968Z,43.30
2018-03-06T17:50:57.237Z,45.20
2018-03-06T17:53:24.719Z,45.77
2018-03-06T17:55:52.966Z,45.10
2018-03-06T17:58:20.471Z,43.73
2018-03-06T18:00:47.957Z,43.83
2018-03-06T18:03:16.219Z,41.97
2018-03-06T18:05:43.720Z,42.60
2018-03-06T18:08:11.224Z,45.83
2018-03-06T18:10:38.718Z,42.20
2018-03-06T18:13:06.215Z,45.57
2018-03-06T18:15:33.771Z,46.80
2018-03-06T18:18:01.354Z,45.27
2018-03-06T18:20:29.016Z,47.97
2018-03-06T18:22:56.711Z,44.97
2018-03-06T18:25:24.210Z,45.60
2018-03-06T18:27:52.485Z,47.43
2018-03-06T18:30:20.066Z,48.00
2018-03-06T18:32:47.610Z,46.70
2018-03-06T18:35:15.976Z,47.77
2018-03-06T18:37:43.510Z,51.57
2018-03-06T18:40:11.032Z,51.03
2018-03-06T18:42:38.564Z,53.03
2018-03-06T18:45:06.095Z,48.80
2018-03-06T18:47:33.607Z,50.17
2018-03-06T18:50:01.964Z,48.20
2018-03-06T18:52:29.463Z,49.50
2018-03-06T18:54:57.030Z,51.17
2018-03-06T18:57:24.557Z,46.30
2018-03-06T19:03:10.134Z,45.60
2018-03-06T19:05:50.880Z,44.67
2018-03-06T19:08:19.152Z,46.67
2018-03-06T19:10:46.652Z,45.90
2018-03-06T19:13:14.132Z,47.30
2018-03-06T19:15:41.644Z,42.73
2018-03-06T19:18:09.332Z,46.17
2018-03-06T19:20:36.868Z,45.23
2018-03-06T19:23:04.345Z,47.10
2018-03-06T19:25:31.856Z,47.60
2018-03-06T19:27:59.341Z,46.70
2018-03-06T19:30:27.610Z,48.40
2018-03-06T19:32:55.220Z,45.87
2018-03-06T19:35:22.747Z,47.13
2018-03-06T19:37:50.276Z,48.50
2018-03-06T19:40:17.766Z,48.90
2018-03-06T19:42:45.249Z,50.40
2018-03-06T19:45:12.755Z,51.50
2018-03-06T19:47:41.003Z,49.00
2018-03-06T19:50:08.512Z,53.10
2018-03-06T19:52:36.755Z,51.83
2018-03-06T19:55:04.261Z,53.03
2018-03-06T19:57:31.743Z,52.00
2018-03-06T20:00:00.019Z,49.23
2018-03-06T20:02:28.270Z,52.33
2018-03-06T20:04:55.777Z,50.50
2018-03-06T20:07:24.041Z,50.90
2018-03-06T20:09:51.557Z,51.80
2018-03-06T20:12:19.055Z,53.83
2018-03-06T20:14:52.193Z,53.30
2018-03-06T20:17:19.699Z,51.67
2018-03-06T20:19:47.204Z,52.90
2018-03-06T20:22:14.690Z,50.77
2018-03-06T20:24:47.773Z,50.23
2018-03-06T20:27:15.337Z,50.13
2018-03-06T20:29:42.858Z,51.33
2018-03-06T20:32:16.945Z,49.27
2018-03-06T20:34:44.434Z,50.70
2018-03-06T20:37:11.936Z,51.67
2018-03-06T20:39:45.927Z,52.73
2018-03-06T20:42:13.412Z,51.67
2018-03-06T20:44:40.891Z,55.00
2018-03-06T20:47:14.768Z,54.30
2018-03-06T20:49:42.251Z,52.63
2018-03-06T20:52:09.758Z,50.77
2018-03-06T20:57:56.300Z,50.70
2018-03-06T21:00:24.575Z,48.83
2018-03-06T21:02:52.068Z,50.60
2018-03-06T21:05:20.340Z,50.40
2018-03-06T21:07:47.819Z,48.70
2018-03-06T21:10:16.090Z,50.40
2018-03-06T21:12:43.584Z,47.50
2018-03-06T21:15:11.854Z,46.47
2018-03-06T21:17:39.326Z,46.27
2018-03-06T21:20:07.695Z,47.97
2018-03-06T21:22:36.159Z,48.20
2018-03-06T21:25:03.668Z,45.93
2018-03-06T21:27:31.167Z,44.70
2018-03-06T21:29:59.411Z,45.83
2018-03-06T21:32:26.916Z,45.60
2018-03-06T21:34:55.164Z,45.33
2018-03-06T21:37:22.658Z,46.00
2018-03-06T21:39:50.149Z,44.93
2018-03-06T21:42:18.419Z,43.80
2018-03-06T21:44:45.906Z,42.63
2018-03-06T21:47:14.174Z,42.00
2018-03-06T21:49:41.655Z,41.90
2018-03-06T21:52:09.153Z,41.80
2018-03-06T21:54:36.632Z,41.33
2018-03-06T21:57:04.131Z,43.33
2018-03-06T21:59:31.616Z,43.50
2018-03-06T22:01:59.117Z,41.27
2018-03-06T22:04:27.360Z,40.37
2018-03-06T22:06:54.887Z,43.00
2018-03-06T22:09:22.379Z,40.70
2018-03-06T22:11:49.888Z,41.27
2018-03-06T22:14:17.366Z,41.20
2018-03-06T22:16:44.868Z,40.17
2018-03-06T22:19:12.369Z,41.47
2018-03-06T22:21:39.895Z,38.90
2018-03-06T22:24:08.136Z,39.00
2018-03-06T22:26:35.635Z,37.23
2018-03-06T22:29:03.115Z,37.37
2018-03-06T22:31:30.621Z,39.27
2018-03-06T22:33:58.112Z,38.47
2018-03-06T22:36:25.606Z,36.90
2018-03-06T22:38:53.091Z,39.90
2018-03-06T22:41:20.588Z,39.83
2018-03-06T22:43:48.094Z,38.90
2018-03-06T22:46:15.590Z,37.70
2018-03-06T22:48:43.075Z,38.63
2018-03-06T22:51:10.580Z,37.13
2018-03-06T22:53:38.060Z,38.70
2018-03-06T22:56:05.560Z,39.43
2018-03-06T22:58:33.039Z,38.17
2018-03-06T23:01:00.548Z,38.67
2018-03-06T23:03:28.023Z,39.07
2018-03-06T23:05:57.477Z,39.60
2018-03-06T23:08:24.952Z,40.63
2018-03-06T23:10:52.452Z,37.13
2018-03-06T23:13:20.899Z,41.90
2018-03-06T23:15:48.404Z,36.37
2018-03-06T23:18:15.893Z,36.93
2018-03-06T23:20:44.182Z,39.27
2018-03-06T23:23:12.436Z,39.00
2018-03-06T23:25:39.957Z,36.53
2018-03-06T23:28:07.453Z,36.53
2018-03-06T23:30:34.941Z,39.60
2018-03-06T23:33:02.453Z,38.40
2018-03-06T23:35:30.712Z,35.50
2018-03-06T23:37:58.222Z,37.53
2018-03-06T23:40:25.708Z,35.60
2018-03-06T23:42:53.216Z,38.23
2018-03-06T23:45:20.708Z,37.07
2018-03-06T23:47:48.221Z,36.60
2018-03-06T23:50:15.716Z,37.70
2018-03-06T23:52:43.230Z,36.50
2018-03-06T23:55:11.493Z,38.77
2018-03-06T23:57:39.001Z,35.63
